createdAt,value
2023-05-21T00:00:37.537Z,11.05
2023-05-21T00:03:14.027Z,10.05
2023-05-21T00:05:47.312Z,10.48
2023-05-21T00:08:19.047Z,10.02
2023-05-21T00:10:50.630Z,11.23
2023-05-21T00:13:22.250Z,10.35
2023-05-21T00:15:54.184Z,11.27
2023-05-21T00:18:25.766Z,11.85
2023-05-21T00:20:57.858Z,9.70
2023-05-21T00:23:32.640Z,10.70
2023-05-21T00:26:04.315Z,11.02
2023-05-21T00:28:35.917Z,11.20
2023-05-21T00:31:07.664Z,11.25
2023-05-21T00:33:39.296Z,11.95
2023-05-21T00:36:14.386Z,10.48
2023-05-21T00:38:46.194Z,12.00
2023-05-21T00:41:18.890Z,11.40
2023-05-21T00:43:50.714Z,9.82
2023-05-21T00:46:22.821Z,9.18
2023-05-21T00:48:55.033Z,8.60
2023-05-21T00:51:30.312Z,8.05
2023-05-21T00:54:02.509Z,8.30
2023-05-21T00:56:36.181Z,8.65
2023-05-21T00:59:08.232Z,7.95
2023-05-21T01:01:40.050Z,7.80
2023-05-21T01:04:13.211Z,7.45
2023-05-21T01:06:44.857Z,7.68
2023-05-21T01:09:16.852Z,7.20
2023-05-21T01:11:51.192Z,7.90
2023-05-21T01:14:24.731Z,9.98
2023-05-21T01:16:56.391Z,7.82
2023-05-21T01:19:28.907Z,8.27
2023-05-21T01:22:05.210Z,8.95
2023-05-21T01:24:36.902Z,9.82
2023-05-21T01:27:10.451Z,8.23
2023-05-21T01:29:42.098Z,8.40
2023-05-21T01:32:34.473Z,8.77
2023-05-21T01:35:12.756Z,9.45
2023-05-21T01:37:59.649Z,9.90
2023-05-21T01:40:55.251Z,8.57
2023-05-21T01:43:29.280Z,7.70
2023-05-21T01:46:02.238Z,7.47
2023-05-21T01:48:35.134Z,8.13
2023-05-21T01:51:06.876Z,6.53
2023-05-21T01:53:41.254Z,7.38
2023-05-21T01:56:12.938Z,7.35
2023-05-21T01:58:44.539Z,7.80
2023-05-21T02:01:16.147Z,9.25
2023-05-21T02:03:47.815Z,8.60
2023-05-21T02:06:19.432Z,8.50
2023-05-21T02:08:51.099Z,10.20
2023-05-21T02:11:23.987Z,8.43
2023-05-21T02:13:57.427Z,9.45
2023-05-21T02:16:29.195Z,9.30
2023-05-21T02:19:00.916Z,9.38
2023-05-21T02:21:32.733Z,9.40
2023-05-21T02:24:04.658Z,9.13
2023-05-21T02:26:37.405Z,9.35
2023-05-21T02:29:09.091Z,9.15
2023-05-21T02:31:41.238Z,9.15
2023-05-21T02:34:12.971Z,9.25
2023-05-21T02:36:44.614Z,9.48
2023-05-21T02:39:19.793Z,8.85
2023-05-21T02:41:51.440Z,8.52
2023-05-21T02:44:24.119Z,12.70
2023-05-21T02:46:55.716Z,10.07
2023-05-21T02:49:27.306Z,10.88
2023-05-21T02:51:58.949Z,11.00
2023-05-21T02:54:33.620Z,11.25
2023-05-21T02:57:05.737Z,10.98
2023-05-21T02:59:37.301Z,10.52
2023-05-21T03:02:09.034Z,10.88
2023-05-21T03:04:46.439Z,10.52
2023-05-21T03:07:19.294Z,9.80
2023-05-21T03:09:51.007Z,13.23
2023-05-21T03:12:22.838Z,9.68
2023-05-21T03:14:54.485Z,9.32
2023-05-21T03:17:26.122Z,10.70
2023-05-21T03:19:59.054Z,9.35
2023-05-21T03:22:30.684Z,9.82
2023-05-21T03:25:02.727Z,9.98
2023-05-21T03:27:36.639Z,9.65
2023-05-21T03:30:09.664Z,9.82
2023-05-21T03:32:41.399Z,9.95
2023-05-21T03:35:13.285Z,11.40
2023-05-21T03:37:44.932Z,9.60
2023-05-21T03:40:16.668Z,9.23
2023-05-21T03:42:48.498Z,8.70
2023-05-21T03:45:20.287Z,9.50
2023-05-21T03:47:52.044Z,9.43
2023-05-21T03:50:23.680Z,9.43
2023-05-21T03:52:55.471Z,9.52
2023-05-21T03:55:30.006Z,10.05
2023-05-21T03:58:01.930Z,11.60
2023-05-21T04:00:34.529Z,10.55
2023-05-21T04:03:07.281Z,10.93
2023-05-21T04:05:39.009Z,9.93
2023-05-21T04:08:10.959Z,9.50
2023-05-21T04:10:45.743Z,10.60
2023-05-21T04:13:17.342Z,10.02
2023-05-21T04:15:49.082Z,9.82
2023-05-21T04:18:22.956Z,11.30
2023-05-21T04:20:54.596Z,10.20
2023-05-21T04:23:26.190Z,10.55
2023-05-21T04:25:57.790Z,9.93
2023-05-21T04:28:29.919Z,11.02
2023-05-21T04:31:01.584Z,10.10
2023-05-21T04:33:33.353Z,9.20
2023-05-21T04:36:05.103Z,11.43
2023-05-21T04:38:37.104Z,10.32
2023-05-21T04:41:10.844Z,11.60
2023-05-21T04:43:44.087Z,10.38
2023-05-21T04:46:15.872Z,10.18
2023-05-21T04:48:47.676Z,11.18
2023-05-21T04:51:19.306Z,10.65
2023-05-21T04:53:50.971Z,10.00
2023-05-21T04:56:22.541Z,9.95
2023-05-21T04:58:54.439Z,10.43
2023-05-21T05:01:27.390Z,9.65
2023-05-21T05:03:59.201Z,9.98
2023-05-21T05:06:31.723Z,9.95
2023-05-21T05:09:04.592Z,10.45
2023-05-21T05:11:36.245Z,10.18
2023-05-21T05:14:07.872Z,11.15
2023-05-21T05:16:39.500Z,13.88
2023-05-21T05:19:11.149Z,10.65
2023-05-21T05:21:42.846Z,10.15
2023-05-21T05:24:14.712Z,10.05
2023-05-21T05:26:46.326Z,10.77
2023-05-21T05:29:17.941Z,9.57
2023-05-21T05:31:49.618Z,8.98
2023-05-21T05:34:24.273Z,9.00
2023-05-21T05:36:57.276Z,9.15
2023-05-21T05:39:28.894Z,9.02
2023-05-21T05:42:00.575Z,9.05
2023-05-21T05:44:32.319Z,7.10
2023-05-21T05:47:09.067Z,8.18
2023-05-21T05:49:41.130Z,8.13
2023-05-21T05:52:12.826Z,8.75
2023-05-21T05:54:44.545Z,8.23
2023-05-21T05:57:16.234Z,7.78
2023-05-21T05:59:47.849Z,7.72
2023-05-21T06:02:19.620Z,6.90
2023-05-21T06:04:54.289Z,5.95
2023-05-21T06:07:25.905Z,7.28
2023-05-21T06:09:57.555Z,5.18
2023-05-21T06:12:29.178Z,4.95
2023-05-21T06:15:01.778Z,4.97
2023-05-21T06:17:33.586Z,4.43
2023-05-21T06:20:06.269Z,5.45
2023-05-21T06:22:38.317Z,5.55
2023-05-21T06:25:10.711Z,6.88
2023-05-21T06:27:42.428Z,6.95
2023-05-21T06:30:14.074Z,6.07
2023-05-21T06:32:45.830Z,6.30
2023-05-21T06:35:17.520Z,7.57
2023-05-21T06:37:49.309Z,6.93
2023-05-21T06:40:21.727Z,7.38
2023-05-21T06:42:53.487Z,8.40
2023-05-21T06:45:25.144Z,8.27
2023-05-21T06:47:56.718Z,8.30
2023-05-21T06:50:28.443Z,7.95
2023-05-21T06:53:01.249Z,7.43
2023-05-21T06:55:32.971Z,8.90
2023-05-21T06:58:04.552Z,7.35
2023-05-21T07:00:36.156Z,10.25
2023-05-21T07:03:07.818Z,6.53
2023-05-21T07:05:39.887Z,7.78
2023-05-21T07:08:12.256Z,8.38
2023-05-21T07:10:44.127Z,7.90
2023-05-21T07:13:16.318Z,10.15
2023-05-21T07:15:48.195Z,7.22
2023-05-21T07:18:22.136Z,8.05
2023-05-21T07:20:53.912Z,7.90
2023-05-21T07:23:25.530Z,9.30
2023-05-21T07:25:57.195Z,8.25
2023-05-21T07:28:28.882Z,6.85
2023-05-21T07:31:00.643Z,7.50
2023-05-21T07:33:32.338Z,7.50
2023-05-21T07:36:05.023Z,6.68
2023-05-21T07:38:36.636Z,7.63
2023-05-21T07:41:08.428Z,6.97
2023-05-21T07:43:40.145Z,8.55
2023-05-21T07:46:13.333Z,8.50
2023-05-21T07:48:45.675Z,8.32
2023-05-21T07:51:17.576Z,9.68
2023-05-21T07:53:49.177Z,7.43
2023-05-21T07:56:21.571Z,7.95
2023-05-21T07:58:53.963Z,7.88
2023-05-21T08:01:28.234Z,7.40
2023-05-21T08:04:09.221Z,8.20
2023-05-21T08:06:40.921Z,8.15
2023-05-21T08:09:15.458Z,7.95
2023-05-21T08:11:47.182Z,7.10
2023-05-21T08:14:18.867Z,7.15
2023-05-21T08:16:50.747Z,6.65
2023-05-21T08:19:22.460Z,6.35
2023-05-21T08:21:54.156Z,5.68
2023-05-21T08:24:26.475Z,6.63
2023-05-21T08:26:58.133Z,6.07
2023-05-21T08:29:29.774Z,6.65
2023-05-21T08:32:01.537Z,7.40
2023-05-21T08:34:33.256Z,9.10
2023-05-21T08:37:04.883Z,10.15
2023-05-21T08:39:45.395Z,8.38
2023-05-21T08:42:38.760Z,7.03
2023-05-21T08:45:16.804Z,7.82
2023-05-21T08:47:56.021Z,6.65
2023-05-21T08:50:28.436Z,8.32
2023-05-21T08:53:04.003Z,6.43
2023-05-21T08:55:42.804Z,8.13
2023-05-21T08:58:14.639Z,7.70
2023-05-21T09:00:46.269Z,9.63
2023-05-21T09:03:18.356Z,11.20
2023-05-21T09:05:51.848Z,9.93
2023-05-21T09:08:37.390Z,10.73
2023-05-21T09:11:09.059Z,10.75
2023-05-21T09:13:43.582Z,9.80
2023-05-21T09:18:46.895Z,10.43
2023-05-21T09:21:27.482Z,10.45
2023-05-21T09:24:01.700Z,10.75
2023-05-21T09:26:34.258Z,9.32
2023-05-21T09:29:06.058Z,8.88
2023-05-21T09:31:45.031Z,9.85
2023-05-21T09:34:17.064Z,10.05
2023-05-21T09:36:52.095Z,11.52
2023-05-21T09:39:33.448Z,9.10
2023-05-21T09:42:05.457Z,8.60
2023-05-21T09:44:37.314Z,8.23
2023-05-21T09:47:12.257Z,8.68
2023-05-21T09:49:44.688Z,9.98
2023-05-21T09:52:26.392Z,12.30
2023-05-21T09:54:58.018Z,9.35
2023-05-21T09:57:29.846Z,6.45
2023-05-21T10:00:01.407Z,7.90
2023-05-21T10:02:37.382Z,10.57
2023-05-21T10:05:10.383Z,8.52
2023-05-21T10:07:45.832Z,5.65
2023-05-21T10:10:21.259Z,8.25
2023-05-21T10:13:09.081Z,7.53
2023-05-21T10:15:59.408Z,5.95
2023-05-21T10:18:33.425Z,7.25
2023-05-21T10:21:07.155Z,7.82
2023-05-21T10:23:39.537Z,7.07
2023-05-21T10:26:12.657Z,5.63
2023-05-21T10:28:45.211Z,6.32
2023-05-21T10:31:17.847Z,7.22
2023-05-21T10:33:50.948Z,6.80
2023-05-21T10:36:27.685Z,6.78
2023-05-21T10:39:00.732Z,6.60
2023-05-21T10:41:53.196Z,4.93
2023-05-21T10:44:38.466Z,5.60
2023-05-21T10:47:47.977Z,5.70
2023-05-21T10:50:41.120Z,5.50
2023-05-21T10:54:16.997Z,6.90
2023-05-21T10:57:03.916Z,10.23
2023-05-21T10:59:43.919Z,9.23
2023-05-21T11:02:17.828Z,8.43
2023-05-21T11:05:01.922Z,8.38
2023-05-21T11:07:56.903Z,6.53
2023-05-21T11:10:41.523Z,9.43
2023-05-21T11:13:22.354Z,7.55
2023-05-21T11:16:02.662Z,5.63
2023-05-21T11:18:38.085Z,6.60
2023-05-21T11:21:16.526Z,7.90
2023-05-21T11:23:57.089Z,8.52
2023-05-21T11:26:50.832Z,7.15
2023-05-21T11:29:42.526Z,8.88
2023-05-21T11:32:15.636Z,9.57
2023-05-21T11:34:48.431Z,8.13
2023-05-21T11:37:33.329Z,4.70
2023-05-21T11:40:28.331Z,6.07
2023-05-21T11:42:59.974Z,8.70
2023-05-21T11:45:33.347Z,5.50
2023-05-21T11:48:06.337Z,4.85
2023-05-21T11:50:38.399Z,9.80
2023-05-21T11:53:12.385Z,3.55
2023-05-21T11:55:47.288Z,2.53
2023-05-21T11:58:19.734Z,3.78
2023-05-21T12:00:51.703Z,5.47
2023-05-21T12:03:27.014Z,7.63
2023-05-21T12:06:06.596Z,5.85
2023-05-21T12:08:38.417Z,2.88
2023-05-21T12:11:10.019Z,5.30
2023-05-21T12:13:41.721Z,2.65
2023-05-21T12:16:14.075Z,4.30
2023-05-21T12:18:45.764Z,4.43
2023-05-21T12:21:17.459Z,2.38
2023-05-21T12:23:49.049Z,2.35
2023-05-21T12:26:21.921Z,1.38
2023-05-21T12:28:56.872Z,1.88
2023-05-21T12:31:30.886Z,2.22
2023-05-21T12:34:02.499Z,1.38
2023-05-21T12:36:34.372Z,1.00
2023-05-21T12:39:10.617Z,3.75
2023-05-21T12:41:44.012Z,3.60
2023-05-21T12:44:15.691Z,2.22
2023-05-21T12:46:47.315Z,5.05
2023-05-21T12:49:40.047Z,5.45
2023-05-21T12:52:13.546Z,3.08
2023-05-21T12:54:50.043Z,3.95
2023-05-21T12:57:25.357Z,2.78
2023-05-21T13:00:01.013Z,3.00
2023-05-21T13:02:44.865Z,2.28
2023-05-21T13:05:18.386Z,7.85
2023-05-21T13:07:51.634Z,3.50
2023-05-21T13:10:23.321Z,4.32
2023-05-21T13:12:54.957Z,6.20
2023-05-21T13:15:26.578Z,7.82
2023-05-21T13:17:58.291Z,9.05
2023-05-21T13:20:38.522Z,8.68
2023-05-21T13:23:11.833Z,7.28
2023-05-21T13:25:44.312Z,6.57
2023-05-21T13:28:17.082Z,5.47
2023-05-21T13:30:48.698Z,9.43
2023-05-21T13:33:20.594Z,2.97
2023-05-21T13:35:52.364Z,2.67
2023-05-21T13:38:26.932Z,4.05
2023-05-21T13:40:58.590Z,3.25
2023-05-21T13:43:33.251Z,5.07
2023-05-21T13:46:05.177Z,5.85
2023-05-21T13:48:36.787Z,7.47
2023-05-21T13:51:08.731Z,9.48
2023-05-21T13:53:40.418Z,5.40
2023-05-21T13:56:12.100Z,6.82
2023-05-21T13:58:43.739Z,4.75
2023-05-21T14:01:15.607Z,5.15
2023-05-21T14:03:47.228Z,7.25
2023-05-21T14:06:18.995Z,5.68
2023-05-21T14:08:53.342Z,4.90
2023-05-21T14:13:57.063Z,4.57
2023-05-21T14:16:28.814Z,5.93
2023-05-21T14:19:00.517Z,9.02
2023-05-21T14:21:32.248Z,3.67
2023-05-21T14:24:04.296Z,6.93
2023-05-21T14:26:40.067Z,3.75
2023-05-21T14:29:11.965Z,12.20
2023-05-21T14:31:43.616Z,4.97
2023-05-21T14:34:15.373Z,4.22
2023-05-21T14:36:47.047Z,7.53
2023-05-21T14:39:18.687Z,5.55
2023-05-21T14:41:50.553Z,13.90
2023-05-21T14:44:22.117Z,6.35
2023-05-21T14:46:53.852Z,4.75
2023-05-21T14:49:25.560Z,14.55
2023-05-21T14:51:57.235Z,20.70
2023-05-21T14:54:28.823Z,7.47
2023-05-21T14:57:00.449Z,2.70
2023-05-21T14:59:32.042Z,6.70
2023-05-21T15:02:03.852Z,5.85
2023-05-21T15:04:35.545Z,5.00
2023-05-21T15:07:07.164Z,16.23
2023-05-21T15:09:38.717Z,5.18
2023-05-21T15:12:10.345Z,6.88
2023-05-21T15:14:41.993Z,4.95
2023-05-21T15:17:13.561Z,3.75
2023-05-21T15:19:45.327Z,7.15
2023-05-21T15:22:16.967Z,4.78
2023-05-21T15:24:48.734Z,4.07
2023-05-21T15:27:20.454Z,5.38
2023-05-21T15:29:53.121Z,3.25
2023-05-21T15:32:25.479Z,4.90
2023-05-21T15:34:57.166Z,4.47
2023-05-21T15:37:32.239Z,10.35
2023-05-21T15:40:04.717Z,8.30
2023-05-21T15:42:36.352Z,8.88
2023-05-21T15:45:08.864Z,6.75
2023-05-21T15:47:43.373Z,8.50
2023-05-21T15:50:15.427Z,17.60
2023-05-21T15:52:53.035Z,6.55
2023-05-21T15:55:25.016Z,4.32
2023-05-21T15:57:56.639Z,5.25
2023-05-21T16:00:28.288Z,5.60
2023-05-21T16:03:00.069Z,5.53
2023-05-21T16:05:31.750Z,4.20
2023-05-21T16:08:03.568Z,4.70
2023-05-21T16:10:35.481Z,5.32
2023-05-21T16:13:07.259Z,7.97
2023-05-21T16:15:46.916Z,11.35
2023-05-21T16:18:18.524Z,5.57
2023-05-21T16:20:50.244Z,4.35
2023-05-21T16:23:23.088Z,4.32
2023-05-21T16:25:54.864Z,4.53
2023-05-21T16:28:27.355Z,4.90
2023-05-21T16:30:59.231Z,3.92
2023-05-21T16:33:30.980Z,7.90
2023-05-21T16:36:02.695Z,4.85
2023-05-21T16:38:34.363Z,9.45
2023-05-21T16:41:06.561Z,4.95
2023-05-21T16:43:38.271Z,4.28
2023-05-21T16:46:10.250Z,11.32
2023-05-21T16:48:42.778Z,6.80
2023-05-21T16:51:14.488Z,3.10
2023-05-21T16:53:46.871Z,2.00
2023-05-21T16:56:18.435Z,4.85
2023-05-21T16:58:53.105Z,2.17
2023-05-21T17:01:26.816Z,5.38
2023-05-21T17:03:58.553Z,3.92
2023-05-21T17:06:36.420Z,1.65
2023-05-21T17:09:08.102Z,1.02
2023-05-21T17:11:42.202Z,4.97
2023-05-21T17:14:23.299Z,1.20
2023-05-21T17:17:06.651Z,1.90
2023-05-21T17:19:38.740Z,2.85
2023-05-21T17:22:10.494Z,3.33
2023-05-21T17:24:42.253Z,2.15
2023-05-21T17:27:16.595Z,3.05
2023-05-21T17:29:48.236Z,1.52
2023-05-21T17:32:20.965Z,1.73
2023-05-21T17:34:53.846Z,3.80
2023-05-21T17:37:25.577Z,1.98
2023-05-21T17:39:57.807Z,3.03
2023-05-21T17:42:29.451Z,2.90
2023-05-21T17:45:01.428Z,4.28
2023-05-21T17:47:34.545Z,2.95
2023-05-21T17:50:07.674Z,2.53
2023-05-21T17:52:39.429Z,3.63
2023-05-21T17:55:11.175Z,2.22
2023-05-21T17:57:42.864Z,3.05
2023-05-21T18:00:14.836Z,4.18
2023-05-21T18:02:46.536Z,2.22
2023-05-21T18:05:18.740Z,1.77
2023-05-21T18:07:50.415Z,2.70
2023-05-21T18:10:24.128Z,2.17
2023-05-21T18:12:55.775Z,2.28
2023-05-21T18:15:27.444Z,2.35
2023-05-21T18:18:02.811Z,2.10
2023-05-21T18:20:35.290Z,1.77
2023-05-21T18:23:07.056Z,2.05
2023-05-21T18:25:38.732Z,1.40
2023-05-21T18:28:10.655Z,1.80
2023-05-21T18:30:42.381Z,1.48
2023-05-21T18:33:17.113Z,2.10
2023-05-21T18:38:21.078Z,1.38
2023-05-21T18:40:55.665Z,1.27
2023-05-21T18:43:27.286Z,2.90
2023-05-21T18:45:59.051Z,1.13
2023-05-21T18:48:30.702Z,1.50
2023-05-21T18:51:02.430Z,1.60
2023-05-21T18:53:34.079Z,2.22
2023-05-21T18:56:07.395Z,1.92
2023-05-21T18:58:41.465Z,1.70
2023-05-21T19:01:13.361Z,1.63
2023-05-21T19:03:45.084Z,1.48
2023-05-21T19:06:16.687Z,3.17
2023-05-21T19:08:48.379Z,2.22
2023-05-21T19:11:23.508Z,2.25
2023-05-21T19:13:55.486Z,2.33
2023-05-21T19:16:27.157Z,1.98
2023-05-21T19:18:58.961Z,1.63
2023-05-21T19:21:31.381Z,2.17
2023-05-21T19:24:05.387Z,2.13
2023-05-21T19:26:37.546Z,2.47
2023-05-21T19:29:09.641Z,3.20
2023-05-21T19:31:41.587Z,2.45
2023-05-21T19:34:13.311Z,2.42
2023-05-21T19:36:53.075Z,2.38
2023-05-21T19:39:25.527Z,3.72
2023-05-21T19:41:57.154Z,2.78
2023-05-21T19:44:31.091Z,2.95
2023-05-21T19:47:02.986Z,2.53
2023-05-21T19:49:34.734Z,2.38
2023-05-21T19:52:06.632Z,2.40
2023-05-21T19:54:38.411Z,4.30
2023-05-21T19:57:12.335Z,2.78
2023-05-21T19:59:44.304Z,3.65
2023-05-21T20:02:17.199Z,2.28
2023-05-21T20:04:50.246Z,3.60
2023-05-21T20:07:21.830Z,2.17
2023-05-21T20:09:54.768Z,2.70
2023-05-21T20:12:27.107Z,2.33
2023-05-21T20:15:00.246Z,2.60
2023-05-21T20:17:34.398Z,2.95
2023-05-21T20:20:12.714Z,3.92
2023-05-21T20:22:45.904Z,2.75
2023-05-21T20:25:17.549Z,2.40
2023-05-21T20:27:49.212Z,3.10
2023-05-21T20:30:20.861Z,2.83
2023-05-21T20:32:52.585Z,2.33
2023-05-21T20:35:24.785Z,2.67
2023-05-21T20:37:56.826Z,3.08
2023-05-21T20:40:29.826Z,2.88
2023-05-21T20:43:01.772Z,2.80
2023-05-21T20:45:35.018Z,2.47
2023-05-21T20:48:11.910Z,2.75
2023-05-21T20:50:48.968Z,2.60
2023-05-21T20:53:21.660Z,2.55
2023-05-21T20:55:54.742Z,2.85
2023-05-21T20:58:27.020Z,2.80
2023-05-21T21:00:58.755Z,3.33
2023-05-21T21:03:36.014Z,2.50
2023-05-21T21:06:09.791Z,2.67
2023-05-21T21:08:50.106Z,2.42
2023-05-21T21:11:21.905Z,2.88
2023-05-21T21:13:53.619Z,3.17
2023-05-21T21:16:25.377Z,2.50
2023-05-21T21:18:57.147Z,3.00
2023-05-21T21:21:28.893Z,3.45
2023-05-21T21:24:00.766Z,3.95
2023-05-21T21:26:34.567Z,4.25
2023-05-21T21:29:06.230Z,3.15
2023-05-21T21:31:38.714Z,3.17
2023-05-21T21:34:10.461Z,4.60
2023-05-21T21:36:44.284Z,5.72
2023-05-21T21:39:17.084Z,3.60
2023-05-21T21:41:48.764Z,3.35
2023-05-21T21:44:23.835Z,2.97
2023-05-21T21:49:27.007Z,2.58
2023-05-21T21:51:58.701Z,3.00
2023-05-21T21:54:30.335Z,4.13
2023-05-21T21:57:02.112Z,3.30
2023-05-21T21:59:34.465Z,3.95
2023-05-21T22:02:06.379Z,3.90
2023-05-21T22:04:38.064Z,3.65
2023-05-21T22:07:11.039Z,4.05
2023-05-21T22:09:42.682Z,4.07
2023-05-21T22:12:14.364Z,4.78
2023-05-21T22:14:46.354Z,3.85
2023-05-21T22:17:18.069Z,4.95
2023-05-21T22:19:49.710Z,3.75
2023-05-21T22:22:21.318Z,3.45
2023-05-21T22:24:53.916Z,3.33
2023-05-21T22:27:25.513Z,4.72
2023-05-21T22:30:00.609Z,3.63
2023-05-21T22:32:34.413Z,3.92
2023-05-21T22:35:06.968Z,3.85
2023-05-21T22:37:39.964Z,5.75
2023-05-21T22:40:14.412Z,3.55
2023-05-21T22:42:47.159Z,4.05
2023-05-21T22:45:19.396Z,5.15
2023-05-21T22:47:51.981Z,4.50
2023-05-21T22:50:25.296Z,4.25
2023-05-21T22:52:56.947Z,6.05
2023-05-21T22:55:30.959Z,3.95
2023-05-21T22:58:02.635Z,3.28
2023-05-21T23:00:38.015Z,3.35
2023-05-21T23:03:09.989Z,3.10
2023-05-21T23:05:41.805Z,4.00
2023-05-21T23:08:13.598Z,4.32
2023-05-21T23:10:45.351Z,3.60
2023-05-21T23:13:16.940Z,3.65
2023-05-21T23:15:48.808Z,3.35
2023-05-21T23:18:20.485Z,3.80
2023-05-21T23:20:52.179Z,2.78
2023-05-21T23:23:23.861Z,2.83
2023-05-21T23:25:57.721Z,3.30
2023-05-21T23:28:29.482Z,3.33
2023-05-21T23:31:03.508Z,3.70
2023-05-21T23:33:35.117Z,3.20
2023-05-21T23:36:07.481Z,3.38
2023-05-21T23:38:39.182Z,4.20
2023-05-21T23:41:13.416Z,3.65
2023-05-21T23:43:48.172Z,3.55
2023-05-21T23:46:23.194Z,3.20
2023-05-21T23:48:54.954Z,4.18
2023-05-21T23:51:26.991Z,6.32
2023-05-21T23:53:58.637Z,3.65
2023-05-21T23:56:31.037Z,4.10
2023-05-21T23:59:02.727Z,3.72
